createdAt,value
2023-02-06T00:01:33.963Z,66.42
2023-02-06T00:04:01.360Z,66.50
2023-02-06T00:06:28.707Z,66.47
2023-02-06T00:08:55.772Z,66.55
2023-02-06T00:11:23.304Z,66.47
2023-02-06T00:13:50.811Z,66.46
2023-02-06T00:16:17.788Z,66.48
2023-02-06T00:18:45.460Z,66.52
2023-02-06T00:21:13.180Z,66.52
2023-02-06T00:23:40.116Z,66.54
2023-02-06T00:26:08.405Z,66.52
2023-02-06T00:28:35.865Z,66.59
2023-02-06T00:31:05.864Z,66.63
2023-02-06T00:33:33.445Z,66.65
2023-02-06T00:36:00.853Z,66.56
2023-02-06T00:38:29.217Z,66.53
2023-02-06T00:40:56.867Z,66.56
2023-02-06T00:43:24.221Z,66.27
2023-02-06T00:45:52.395Z,66.14
2023-02-06T00:48:19.353Z,66.15
2023-02-06T00:50:49.362Z,66.14
2023-02-06T00:53:16.832Z,66.47
2023-02-06T00:55:43.781Z,66.51
2023-02-06T00:58:11.043Z,66.64
2023-02-06T01:00:40.864Z,66.72
2023-02-06T01:03:07.904Z,66.65
2023-02-06T01:05:35.980Z,66.63
2023-02-06T01:08:04.530Z,66.35
2023-02-06T01:10:32.305Z,66.23
2023-02-06T01:13:00.627Z,66.14
2023-02-06T01:15:27.888Z,66.29
2023-02-06T01:17:54.825Z,66.53
2023-02-06T01:20:24.962Z,66.73
2023-02-06T01:22:52.003Z,66.77
2023-02-06T01:25:19.353Z,66.83
2023-02-06T01:27:47.591Z,66.93
2023-02-06T01:30:15.133Z,66.88
2023-02-06T01:32:43.193Z,67.06
2023-02-06T01:35:11.572Z,67.11
2023-02-06T01:37:39.953Z,67.34
2023-02-06T01:40:11.749Z,67.16
2023-02-06T01:42:39.473Z,67.18
2023-02-06T01:45:26.072Z,67.24
2023-02-06T01:47:59.262Z,67.21
2023-02-06T01:50:26.414Z,67.17
2023-02-06T01:52:53.367Z,67.27
2023-02-06T01:55:20.426Z,67.09
2023-02-06T01:57:47.372Z,67.10
2023-02-06T02:00:15.339Z,67.04
2023-02-06T02:02:48.463Z,67.10
2023-02-06T02:05:18.366Z,66.73
2023-02-06T02:08:10.680Z,66.68
2023-02-06T02:10:38.451Z,66.87
2023-02-06T02:13:05.413Z,67.00
2023-02-06T02:15:43.915Z,67.05
2023-02-06T02:18:49.141Z,67.17
2023-02-06T02:21:37.888Z,67.25
2023-02-06T02:24:23.872Z,67.26
2023-02-06T02:27:09.957Z,67.26
2023-02-06T02:29:56.767Z,67.19
2023-02-06T02:32:45.510Z,67.12
2023-02-06T02:35:19.726Z,67.02
2023-02-06T02:38:07.859Z,66.95
2023-02-06T02:41:03.160Z,66.79
2023-02-06T02:43:37.703Z,67.00
2023-02-06T02:46:22.951Z,67.02
2023-02-06T02:48:53.255Z,67.06
2023-02-06T02:51:21.045Z,67.21
2023-02-06T02:53:48.091Z,67.19
2023-02-06T02:56:22.682Z,67.26
2023-02-06T02:59:03.276Z,67.27
2023-02-06T03:01:42.926Z,67.35
2023-02-06T03:04:18.368Z,67.24
2023-02-06T03:07:08.745Z,67.38
2023-02-06T03:09:48.900Z,67.35
2023-02-06T03:12:45.838Z,67.46
2023-02-06T03:18:19.277Z,67.39
2023-02-06T03:20:47.959Z,67.42
2023-02-06T03:23:21.139Z,67.37
2023-02-06T03:25:53.137Z,67.44
2023-02-06T03:28:28.748Z,67.34
2023-02-06T03:30:58.454Z,67.37
2023-02-06T03:33:33.775Z,67.36
2023-02-06T03:36:01.258Z,66.97
2023-02-06T03:38:28.377Z,66.89
2023-02-06T03:40:59.384Z,66.95
2023-02-06T03:43:29.752Z,67.00
2023-02-06T03:46:04.156Z,67.09
2023-02-06T03:48:38.978Z,67.03
2023-02-06T03:51:16.308Z,67.07
2023-02-06T03:53:45.826Z,67.28
2023-02-06T03:56:45.123Z,67.41
2023-02-06T03:59:13.018Z,67.36
2023-02-06T04:01:44.725Z,67.28
2023-02-06T04:04:15.821Z,67.32
2023-02-06T04:06:43.414Z,67.28
2023-02-06T04:09:10.333Z,67.35
2023-02-06T04:11:37.196Z,67.55
2023-02-06T04:14:04.042Z,67.57
2023-02-06T04:16:31.033Z,67.72
2023-02-06T04:18:58.008Z,67.70
2023-02-06T04:21:24.838Z,67.66
2023-02-06T04:23:51.680Z,67.66
2023-02-06T04:26:18.585Z,67.79
2023-02-06T04:28:47.132Z,67.72
2023-02-06T04:31:14.036Z,67.65
2023-02-06T04:33:41.709Z,67.72
2023-02-06T04:36:08.828Z,67.61
2023-02-06T04:38:35.712Z,67.57
2023-02-06T04:41:07.129Z,67.63
2023-02-06T04:43:34.383Z,67.56
2023-02-06T04:46:01.340Z,67.54
2023-02-06T04:48:28.429Z,67.59
2023-02-06T04:50:55.516Z,67.54
2023-02-06T04:53:22.373Z,67.62
2023-02-06T04:55:49.267Z,67.56
2023-02-06T04:58:16.118Z,67.55
2023-02-06T05:00:42.976Z,67.55
2023-02-06T05:03:09.772Z,67.49
2023-02-06T05:05:36.773Z,67.50
2023-02-06T05:08:03.806Z,67.62
2023-02-06T05:10:30.752Z,67.56
2023-02-06T05:12:57.541Z,67.65
2023-02-06T05:15:24.543Z,67.74
2023-02-06T05:17:51.464Z,67.60
2023-02-06T05:20:19.271Z,67.59
2023-02-06T05:22:46.167Z,67.60
2023-02-06T05:25:13.071Z,67.63
2023-02-06T05:27:39.886Z,67.65
2023-02-06T05:30:07.121Z,67.55
2023-02-06T05:32:33.981Z,67.55
2023-02-06T05:35:00.791Z,67.53
2023-02-06T05:37:27.639Z,67.44
2023-02-06T05:39:54.525Z,67.54
2023-02-06T05:42:21.375Z,67.38
2023-02-06T05:44:48.195Z,67.13
2023-02-06T05:47:15.023Z,67.09
2023-02-06T05:49:44.169Z,67.21
2023-02-06T05:52:11.750Z,67.35
2023-02-06T05:54:38.532Z,67.52
2023-02-06T05:57:05.447Z,67.53
2023-02-06T05:59:32.371Z,67.70
2023-02-06T06:01:59.499Z,67.60
2023-02-06T06:04:26.480Z,67.63
2023-02-06T06:06:53.389Z,67.67
2023-02-06T06:09:20.320Z,67.84
2023-02-06T06:11:47.955Z,67.92
2023-02-06T06:14:14.781Z,67.82
2023-02-06T06:16:42.016Z,67.91
2023-02-06T06:19:09.488Z,67.78
2023-02-06T06:21:36.734Z,67.85
2023-02-06T06:24:03.861Z,67.85
2023-02-06T06:26:30.974Z,67.87
2023-02-06T06:28:57.842Z,67.83
2023-02-06T06:31:25.020Z,67.67
2023-02-06T06:33:52.853Z,67.52
2023-02-06T06:36:19.785Z,67.22
2023-02-06T06:38:46.642Z,67.10
2023-02-06T06:41:13.610Z,67.31
2023-02-06T06:43:40.974Z,67.46
2023-02-06T06:46:08.579Z,67.49
2023-02-06T06:48:37.319Z,67.59
2023-02-06T06:51:06.041Z,67.84
2023-02-06T06:53:33.252Z,68.06
2023-02-06T06:56:04.770Z,68.14
2023-02-06T06:58:32.507Z,68.07
2023-02-06T07:00:59.483Z,68.12
2023-02-06T07:03:26.819Z,68.21
2023-02-06T07:05:53.908Z,68.10
2023-02-06T07:08:21.130Z,67.86
2023-02-06T07:10:48.863Z,67.98
2023-02-06T07:13:15.863Z,67.98
2023-02-06T07:15:43.519Z,68.14
2023-02-06T07:18:11.847Z,68.07
2023-02-06T07:20:39.073Z,68.24
2023-02-06T07:23:06.498Z,68.25
2023-02-06T07:25:33.542Z,68.23
2023-02-06T07:28:00.639Z,68.14
2023-02-06T07:30:27.667Z,67.97
2023-02-06T07:32:54.589Z,68.02
2023-02-06T07:35:21.495Z,68.02
2023-02-06T07:37:50.665Z,68.18
2023-02-06T07:40:17.626Z,68.22
2023-02-06T07:42:44.525Z,68.28
2023-02-06T07:45:34.435Z,68.27
2023-02-06T07:48:04.465Z,68.27
2023-02-06T07:50:32.013Z,68.43
2023-02-06T07:52:59.428Z,68.34
2023-02-06T07:55:27.860Z,68.41
2023-02-06T07:57:55.792Z,68.49
2023-02-06T08:00:25.538Z,68.46
2023-02-06T08:02:53.048Z,68.59
2023-02-06T08:05:20.090Z,68.74
2023-02-06T08:07:47.392Z,68.81
2023-02-06T08:10:14.330Z,68.74
2023-02-06T08:12:41.290Z,68.63
2023-02-06T08:15:08.867Z,68.60
2023-02-06T08:17:36.388Z,68.41
2023-02-06T08:20:03.627Z,68.55
2023-02-06T08:22:30.687Z,68.63
2023-02-06T08:24:57.543Z,69.08
2023-02-06T08:27:25.896Z,69.25
2023-02-06T08:29:53.255Z,69.69
2023-02-06T08:32:20.397Z,70.24
2023-02-06T08:34:47.482Z,70.62
2023-02-06T08:37:15.395Z,70.62
2023-02-06T08:39:42.380Z,70.77
2023-02-06T08:42:09.304Z,70.84
2023-02-06T08:44:36.390Z,70.89
2023-02-06T08:47:10.039Z,70.79
2023-02-06T08:49:38.590Z,70.36
2023-02-06T08:52:06.047Z,70.09
2023-02-06T08:54:35.288Z,69.71
2023-02-06T08:57:03.405Z,69.42
2023-02-06T08:59:31.266Z,69.71
2023-02-06T09:01:58.640Z,69.27
2023-02-06T09:04:25.691Z,69.09
2023-02-06T09:06:52.656Z,68.77
2023-02-06T09:09:19.833Z,68.36
2023-02-06T09:11:47.114Z,68.34
2023-02-06T09:14:16.282Z,68.22
2023-02-06T09:16:44.365Z,68.41
2023-02-06T09:19:11.422Z,68.36
2023-02-06T09:21:38.599Z,67.92
2023-02-06T09:24:08.655Z,67.65
2023-02-06T09:26:40.561Z,67.38
2023-02-06T09:29:12.430Z,66.86
2023-02-06T09:31:42.685Z,67.15
2023-02-06T09:34:13.001Z,67.42
2023-02-06T09:36:40.840Z,66.99
2023-02-06T09:39:09.750Z,66.84
2023-02-06T09:41:44.814Z,66.97
2023-02-06T09:44:27.393Z,66.73
2023-02-06T09:47:15.140Z,66.05
2023-02-06T09:49:52.275Z,66.35
2023-02-06T09:52:59.542Z,66.46
2023-02-06T09:55:26.490Z,65.61
2023-02-06T09:58:16.442Z,65.45
2023-02-06T10:00:49.546Z,64.88
2023-02-06T10:03:25.708Z,64.65
2023-02-06T10:06:09.235Z,64.76
2023-02-06T10:08:42.401Z,64.45
2023-02-06T10:11:20.475Z,64.22
2023-02-06T10:13:57.447Z,64.25
2023-02-06T10:16:34.941Z,63.87
2023-02-06T10:19:14.733Z,63.71
2023-02-06T10:22:12.900Z,63.62
2023-02-06T10:25:16.230Z,63.75
2023-02-06T10:27:45.853Z,64.16
2023-02-06T10:30:26.197Z,63.87
2023-02-06T10:33:09.728Z,63.30
2023-02-06T10:35:52.099Z,63.41
2023-02-06T10:38:32.693Z,63.35
2023-02-06T10:41:20.093Z,63.14
2023-02-06T10:43:58.041Z,62.87
2023-02-06T10:46:48.567Z,62.87
2023-02-06T10:49:48.109Z,63.04
2023-02-06T10:52:22.077Z,62.57
2023-02-06T10:55:18.293Z,62.14
2023-02-06T10:57:47.985Z,62.46
2023-02-06T11:00:26.476Z,63.09
2023-02-06T11:03:07.283Z,62.98
2023-02-06T11:05:36.309Z,62.82
2023-02-06T11:08:13.993Z,63.18
2023-02-06T11:10:41.128Z,62.78
2023-02-06T11:13:29.817Z,62.78
2023-02-06T11:16:08.749Z,62.92
2023-02-06T11:18:39.905Z,62.57
2023-02-06T11:21:09.824Z,62.20
2023-02-06T11:23:36.865Z,61.81
2023-02-06T11:26:14.765Z,61.54
2023-02-06T11:28:52.761Z,61.76
2023-02-06T11:31:39.631Z,61.13
2023-02-06T11:34:06.865Z,60.44
2023-02-06T11:36:38.737Z,59.81
2023-02-06T11:39:23.836Z,60.41
2023-02-06T11:41:59.843Z,61.26
2023-02-06T11:44:29.432Z,61.39
2023-02-06T11:46:57.412Z,60.81
2023-02-06T11:49:32.001Z,60.80
2023-02-06T11:52:00.965Z,61.19
2023-02-06T11:54:30.547Z,61.04
2023-02-06T11:57:04.484Z,61.33
2023-02-06T11:59:34.728Z,61.13
2023-02-06T12:02:06.642Z,59.99
2023-02-06T12:04:41.721Z,58.73
2023-02-06T12:07:16.979Z,58.12
2023-02-06T12:09:44.116Z,57.85
2023-02-06T12:12:24.012Z,57.60
2023-02-06T12:15:43.684Z,56.40
2023-02-06T12:18:21.961Z,56.63
2023-02-06T12:21:06.700Z,57.36
2023-02-06T12:23:44.216Z,57.69
2023-02-06T12:26:15.014Z,57.33
2023-02-06T12:28:44.680Z,57.19
2023-02-06T12:31:59.435Z,57.35
2023-02-06T12:34:32.833Z,57.66
2023-02-06T12:37:16.325Z,57.99
2023-02-06T12:39:44.028Z,57.87
2023-02-06T12:42:37.206Z,58.28
2023-02-06T12:45:27.724Z,58.57
2023-02-06T12:48:12.148Z,58.71
2023-02-06T12:50:49.527Z,58.50
2023-02-06T12:53:30.645Z,58.59
2023-02-06T12:56:14.558Z,58.67
2023-02-06T12:58:44.684Z,58.65
2023-02-06T13:01:27.979Z,58.55
2023-02-06T13:04:00.582Z,58.41
2023-02-06T13:06:32.746Z,58.25
2023-02-06T13:09:03.028Z,57.99
2023-02-06T13:11:35.848Z,58.01
2023-02-06T13:14:25.820Z,58.04
2023-02-06T13:17:11.972Z,58.09
2023-02-06T13:19:41.922Z,58.32
2023-02-06T13:22:08.697Z,58.31
2023-02-06T13:24:37.411Z,58.02
2023-02-06T13:27:07.214Z,58.01
2023-02-06T13:29:40.157Z,58.03
2023-02-06T13:32:18.638Z,58.25
2023-02-06T13:34:54.821Z,58.26
2023-02-06T13:37:21.784Z,58.08
2023-02-06T13:39:49.688Z,58.07
2023-02-06T13:42:52.245Z,57.90
2023-02-06T13:45:26.615Z,57.90
2023-02-06T13:48:32.086Z,58.03
2023-02-06T13:51:09.528Z,57.89
2023-02-06T13:53:58.551Z,57.83
2023-02-06T13:56:31.661Z,57.88
2023-02-06T13:59:06.188Z,57.87
2023-02-06T14:01:34.152Z,57.69
2023-02-06T14:06:40.479Z,57.67
2023-02-06T14:09:51.011Z,57.67
2023-02-06T14:12:46.014Z,57.84
2023-02-06T14:15:50.790Z,57.76
2023-02-06T14:18:22.221Z,57.88
2023-02-06T14:20:52.930Z,57.65
2023-02-06T14:23:52.499Z,57.58
2023-02-06T14:26:39.124Z,57.62
2023-02-06T14:29:30.924Z,57.82
2023-02-06T14:32:31.042Z,58.05
2023-02-06T14:35:27.444Z,58.06
2023-02-06T14:38:16.305Z,58.10
2023-02-06T14:40:45.304Z,58.15
2023-02-06T14:43:18.307Z,58.17
2023-02-06T14:46:05.399Z,58.12
2023-02-06T14:48:39.747Z,57.98
2023-02-06T14:51:09.210Z,57.80
2023-02-06T14:53:39.030Z,57.86
2023-02-06T14:56:14.264Z,57.89
2023-02-06T14:58:46.537Z,58.00
2023-02-06T15:01:43.005Z,57.97
2023-02-06T15:04:24.753Z,57.91
2023-02-06T15:07:02.122Z,57.98
2023-02-06T15:09:33.370Z,57.90
2023-02-06T15:12:03.305Z,57.88
2023-02-06T15:14:33.809Z,57.93
2023-02-06T15:17:02.945Z,57.94
2023-02-06T15:19:32.690Z,57.61
2023-02-06T15:22:06.510Z,57.57
2023-02-06T15:25:02.678Z,57.70
2023-02-06T15:27:32.406Z,57.68
2023-02-06T15:30:01.700Z,57.52
2023-02-06T15:32:39.260Z,57.50
2023-02-06T15:35:19.139Z,57.37
2023-02-06T15:37:46.256Z,57.38
2023-02-06T15:40:13.849Z,57.54
2023-02-06T15:42:41.839Z,57.46
2023-02-06T15:45:18.304Z,57.45
2023-02-06T15:47:46.386Z,57.37
2023-02-06T15:50:19.481Z,57.30
2023-02-06T15:52:47.747Z,57.30
2023-02-06T15:55:26.726Z,57.20
2023-02-06T15:57:55.991Z,57.28
2023-02-06T16:00:33.076Z,57.30
2023-02-06T16:03:08.084Z,57.50
2023-02-06T16:05:41.076Z,57.55
2023-02-06T16:08:17.804Z,57.53
2023-02-06T16:10:50.526Z,57.53
2023-02-06T16:13:22.553Z,57.69
2023-02-06T16:16:08.984Z,57.72
2023-02-06T16:18:38.806Z,57.89
2023-02-06T16:21:18.152Z,57.93
2023-02-06T16:23:46.704Z,58.06
2023-02-06T16:26:28.570Z,58.17
2023-02-06T16:29:00.911Z,58.05
2023-02-06T16:31:31.035Z,57.95
2023-02-06T16:34:04.814Z,58.01
2023-02-06T16:36:33.815Z,58.11
2023-02-06T16:39:04.364Z,58.24
2023-02-06T16:41:38.468Z,58.27
2023-02-06T16:44:13.693Z,58.27
2023-02-06T16:46:41.073Z,58.15
2023-02-06T16:49:20.128Z,58.17
2023-02-06T16:51:49.293Z,58.17
2023-02-06T16:54:23.618Z,58.34
2023-02-06T16:56:52.209Z,58.26
2023-02-06T16:59:20.167Z,58.32
2023-02-06T17:01:47.590Z,58.52
2023-02-06T17:04:15.344Z,58.50
2023-02-06T17:06:45.302Z,58.73
2023-02-06T17:09:15.236Z,58.66
2023-02-06T17:11:42.386Z,58.86
2023-02-06T17:14:10.698Z,59.18
2023-02-06T17:16:37.889Z,60.63
2023-02-06T17:19:05.081Z,60.10
2023-02-06T17:21:34.085Z,59.42
2023-02-06T17:24:01.434Z,59.14
2023-02-06T17:26:29.104Z,58.97
2023-02-06T17:28:56.561Z,59.13
2023-02-06T17:31:23.974Z,59.66
2023-02-06T17:33:51.397Z,59.57
2023-02-06T17:36:29.635Z,59.34
2023-02-06T17:39:00.961Z,59.33
2023-02-06T17:41:28.421Z,59.36
2023-02-06T17:43:55.665Z,59.21
2023-02-06T17:46:23.513Z,59.43
2023-02-06T17:48:51.108Z,59.33
2023-02-06T17:51:18.166Z,59.43
2023-02-06T17:53:45.210Z,59.29
2023-02-06T17:56:13.403Z,59.50
2023-02-06T17:58:41.684Z,59.53
2023-02-06T18:01:14.017Z,59.51
2023-02-06T18:03:42.349Z,59.68
2023-02-06T18:06:10.268Z,59.79
2023-02-06T18:08:37.351Z,59.71
2023-02-06T18:11:13.956Z,59.72
2023-02-06T18:13:43.370Z,59.81
2023-02-06T18:16:15.848Z,59.88
2023-02-06T18:18:44.237Z,60.09
2023-02-06T18:21:12.091Z,60.24
2023-02-06T18:23:40.142Z,60.30
2023-02-06T18:26:09.665Z,60.36
2023-02-06T18:28:37.930Z,60.39
2023-02-06T18:31:05.748Z,60.31
2023-02-06T18:33:35.627Z,60.23
2023-02-06T18:36:07.185Z,60.46
2023-02-06T18:38:34.416Z,60.43
2023-02-06T18:41:05.786Z,60.52
2023-02-06T18:43:34.046Z,60.47
2023-02-06T18:46:07.272Z,60.55
2023-02-06T18:48:34.802Z,60.81
2023-02-06T18:51:07.077Z,60.86
2023-02-06T18:53:34.547Z,60.85
2023-02-06T18:56:02.105Z,60.94
2023-02-06T18:58:29.163Z,61.08
2023-02-06T19:00:56.631Z,61.21
2023-02-06T19:03:23.880Z,61.23
2023-02-06T19:05:51.027Z,61.27
2023-02-06T19:08:18.098Z,61.31
2023-02-06T19:10:45.658Z,61.36
2023-02-06T19:13:12.707Z,61.27
2023-02-06T19:15:39.774Z,61.39
2023-02-06T19:18:08.273Z,61.34
2023-02-06T19:20:35.848Z,61.53
2023-02-06T19:23:03.067Z,61.65
2023-02-06T19:25:31.140Z,61.48
2023-02-06T19:27:58.172Z,61.58
2023-02-06T19:30:25.195Z,61.65
2023-02-06T19:32:52.593Z,61.75
2023-02-06T19:35:20.079Z,61.76
2023-02-06T19:37:47.635Z,61.73
2023-02-06T19:40:14.690Z,61.70
2023-02-06T19:42:41.733Z,61.80
2023-02-06T19:45:12.071Z,61.75
2023-02-06T19:47:39.229Z,61.90
2023-02-06T19:50:06.781Z,62.03
2023-02-06T19:52:35.565Z,62.16
2023-02-06T19:55:03.086Z,62.06
2023-02-06T19:57:30.200Z,62.14
2023-02-06T19:59:57.100Z,62.11
2023-02-06T20:02:24.098Z,62.25
2023-02-06T20:04:51.266Z,62.21
2023-02-06T20:07:18.272Z,62.22
2023-02-06T20:09:45.472Z,62.22
2023-02-06T20:12:12.933Z,62.18
2023-02-06T20:14:40.488Z,62.34
2023-02-06T20:17:07.608Z,62.26
2023-02-06T20:19:35.520Z,62.35
2023-02-06T20:22:03.381Z,62.25
2023-02-06T20:24:32.419Z,62.27
2023-02-06T20:27:02.140Z,62.37
2023-02-06T20:29:32.321Z,62.44
2023-02-06T20:32:00.366Z,62.35
2023-02-06T20:34:28.747Z,62.44
2023-02-06T20:36:56.142Z,62.41
2023-02-06T20:39:23.798Z,62.45
2023-02-06T20:41:51.183Z,62.43
2023-02-06T20:44:20.278Z,62.41
2023-02-06T20:46:47.749Z,62.46
2023-02-06T20:49:17.895Z,62.63
2023-02-06T20:51:45.067Z,62.77
2023-02-06T20:54:12.752Z,62.79
2023-02-06T20:56:40.694Z,62.72
2023-02-06T20:59:09.112Z,62.77
2023-02-06T21:01:36.444Z,62.84
2023-02-06T21:04:08.624Z,62.94
2023-02-06T21:06:37.684Z,63.01
2023-02-06T21:09:06.199Z,63.09
2023-02-06T21:11:38.015Z,63.03
2023-02-06T21:14:07.243Z,63.08
2023-02-06T21:16:38.044Z,63.38
2023-02-06T21:19:07.546Z,63.31
2023-02-06T21:21:35.430Z,63.28
2023-02-06T21:24:02.473Z,63.29
2023-02-06T21:26:30.641Z,63.36
2023-02-06T21:29:00.411Z,63.34
2023-02-06T21:31:36.940Z,63.34
2023-02-06T21:34:17.518Z,63.48
2023-02-06T21:36:45.595Z,63.55
2023-02-06T21:39:21.356Z,63.51
2023-02-06T21:41:52.176Z,63.48
2023-02-06T21:44:23.404Z,63.39
2023-02-06T21:46:51.622Z,63.22
2023-02-06T21:49:19.973Z,63.14
2023-02-06T21:51:46.938Z,63.16
2023-02-06T21:54:14.203Z,63.42
2023-02-06T21:56:41.341Z,63.40
2023-02-06T21:59:10.091Z,63.54
2023-02-06T22:01:40.937Z,63.59
2023-02-06T22:04:09.602Z,63.66
2023-02-06T22:06:37.745Z,63.67
2023-02-06T22:09:10.820Z,63.58
2023-02-06T22:11:39.952Z,63.53
2023-02-06T22:14:15.731Z,63.56
2023-02-06T22:16:43.463Z,63.75
2023-02-06T22:19:11.032Z,63.82
2023-02-06T22:21:38.282Z,63.95
2023-02-06T22:24:07.391Z,63.93
2023-02-06T22:26:38.965Z,63.87
2023-02-06T22:29:10.184Z,63.78
2023-02-06T22:31:41.057Z,63.83
2023-02-06T22:34:12.398Z,63.96
2023-02-06T22:36:39.973Z,63.95
2023-02-06T22:39:08.719Z,63.89
2023-02-06T22:41:39.561Z,63.93
2023-02-06T22:44:07.125Z,64.03
2023-02-06T22:46:37.365Z,64.00
2023-02-06T22:49:08.079Z,64.11
2023-02-06T22:51:35.952Z,64.17
2023-02-06T22:54:03.602Z,64.10
2023-02-06T22:56:36.290Z,64.25
2023-02-06T22:59:12.565Z,64.25
2023-02-06T23:01:44.148Z,64.29
2023-02-06T23:04:15.468Z,64.20
2023-02-06T23:06:43.556Z,64.21
2023-02-06T23:09:15.300Z,64.35
2023-02-06T23:11:42.357Z,64.48
2023-02-06T23:14:12.279Z,64.38
2023-02-06T23:16:39.740Z,64.61
2023-02-06T23:19:07.814Z,64.58
2023-02-06T23:21:39.372Z,64.46
2023-02-06T23:24:08.513Z,64.28
2023-02-06T23:26:35.971Z,64.43
2023-02-06T23:29:05.773Z,64.43
2023-02-06T23:31:33.475Z,64.48
2023-02-06T23:34:01.083Z,64.38
2023-02-06T23:36:28.755Z,64.52
2023-02-06T23:38:56.002Z,64.55
2023-02-06T23:41:25.526Z,64.44
2023-02-06T23:43:55.745Z,64.61
2023-02-06T23:46:24.006Z,64.63
2023-02-06T23:48:51.887Z,64.71
2023-02-06T23:51:20.853Z,64.69
2023-02-06T23:53:48.763Z,64.68
2023-02-06T23:56:19.760Z,64.80
2023-02-06T23:58:47.382Z,64.91
